sensor_id;sensor_type;location;lat;lon;timestamp;pressure;altitude;pressure_sealevel;temperature;humidity
53550;BME280;67273;52.914;-0.982;2023-03-22T00:01:54;99542.34;;;19.48;45.75
53550;BME280;67273;52.914;-0.982;2023-03-22T00:04:20;99525.19;;;19.47;45.66
53550;BME280;67273;52.914;-0.982;2023-03-22T00:06:46;99523.53;;;19.46;45.74
53550;BME280;67273;52.914;-0.982;2023-03-22T00:09:12;99518.09;;;19.46;45.74
53550;BME280;67273;52.914;-0.982;2023-03-22T00:11:39;99504.75;;;19.45;45.67
53550;BME280;67273;52.914;-0.982;2023-03-22T00:14:05;99509.38;;;19.44;45.87
53550;BME280;67273;52.914;-0.982;2023-03-22T00:16:31;99503.94;;;19.44;46.05
53550;BME280;67273;52.914;-0.982;2023-03-22T00:18:57;99495.75;;;19.44;45.74
53550;BME280;67273;52.914;-0.982;2023-03-22T00:21:23;99491.38;;;19.43;45.71
53550;BME280;67273;52.914;-0.982;2023-03-22T00:23:48;99482.41;;;19.43;45.72
53550;BME280;67273;52.914;-0.982;2023-03-22T00:26:15;99479.69;;;19.43;45.61
53550;BME280;67273;52.914;-0.982;2023-03-22T00:28:42;99458.97;;;19.42;45.76
53550;BME280;67273;52.914;-0.982;2023-03-22T00:31:09;99449.19;;;19.41;45.50
53550;BME280;67273;52.914;-0.982;2023-03-22T00:33:35;99442.09;;;19.40;45.79
53550;BME280;67273;52.914;-0.982;2023-03-22T00:36:04;99442.94;;;19.40;45.71
53550;BME280;67273;52.914;-0.982;2023-03-22T00:38:30;99446.72;;;19.39;45.74
53550;BME280;67273;52.914;-0.982;2023-03-22T00:41:06;99435.84;;;19.39;45.81
53550;BME280;67273;52.914;-0.982;2023-03-22T00:43:32;99443.19;;;19.38;45.76
53550;BME280;67273;52.914;-0.982;2023-03-22T00:45:59;99443.47;;;19.37;45.66
53550;BME280;67273;52.914;-0.982;2023-03-22T00:48:25;99426.31;;;19.36;45.67
53550;BME280;67273;52.914;-0.982;2023-03-22T00:50:51;99438.81;;;19.37;45.75
53550;BME280;67273;52.914;-0.982;2023-03-22T00:53:17;99409.13;;;19.36;45.70
53550;BME280;67273;52.914;-0.982;2023-03-22T00:55:43;99411.88;;;19.36;45.81
53550;BME280;67273;52.914;-0.982;2023-03-22T00:58:09;99418.41;;;19.35;45.76
53550;BME280;67273;52.914;-0.982;2023-03-22T01:00:35;99397.72;;;19.34;45.90
53550;BME280;67273;52.914;-0.982;2023-03-22T01:03:02;99394.97;;;19.34;45.72
53550;BME280;67273;52.914;-0.982;2023-03-22T01:05:30;99393.38;;;19.33;45.80
53550;BME280;67273;52.914;-0.982;2023-03-22T01:07:59;99390.66;;;19.33;45.67
53550;BME280;67273;52.914;-0.982;2023-03-22T01:10:27;99376.19;;;19.32;45.77
53550;BME280;67273;52.914;-0.982;2023-03-22T01:12:53;99388.19;;;19.31;45.90
53550;BME280;67273;52.914;-0.982;2023-03-22T01:15:21;99373.75;;;19.31;45.76
53550;BME280;67273;52.914;-0.982;2023-03-22T01:17:49;99371.00;;;19.31;45.91
53550;BME280;67273;52.914;-0.982;2023-03-22T01:20:17;99363.16;;;19.29;45.64
53550;BME280;67273;52.914;-0.982;2023-03-22T01:22:43;99354.13;;;19.29;45.87
53550;BME280;67273;52.914;-0.982;2023-03-22T01:25:09;99348.69;;;19.29;45.74
53550;BME280;67273;52.914;-0.982;2023-03-22T01:27:35;99342.44;;;19.28;45.80
53550;BME280;67273;52.914;-0.982;2023-03-22T01:30:01;99337.00;;;19.28;45.88
53550;BME280;67273;52.914;-0.982;2023-03-22T01:32:28;99314.41;;;19.28;45.72
53550;BME280;67273;52.914;-0.982;2023-03-22T01:34:54;99303.50;;;19.28;46.05
53550;BME280;67273;52.914;-0.982;2023-03-22T01:37:21;99296.41;;;19.27;45.79
53550;BME280;67273;52.914;-0.982;2023-03-22T01:39:50;99302.94;;;19.26;45.75
53550;BME280;67273;52.914;-0.982;2023-03-22T01:42:17;99305.66;;;19.26;45.88
53550;BME280;67273;52.914;-0.982;2023-03-22T01:47:47;99303.25;;;19.24;45.96
53550;BME280;67273;52.914;-0.982;2023-03-22T01:50:17;99299.69;;;19.24;45.94
53550;BME280;67273;52.914;-0.982;2023-03-22T01:52:48;99279.00;;;19.23;45.78
53550;BME280;67273;52.914;-0.982;2023-03-22T01:55:25;99258.03;;;19.23;45.91
53550;BME280;67273;52.914;-0.982;2023-03-22T01:58:04;99267.28;;;19.22;45.83
53550;BME280;67273;52.914;-0.982;2023-03-22T02:00:40;99264.56;;;19.22;45.86
53550;BME280;67273;52.914;-0.982;2023-03-22T02:03:23;99259.13;;;19.22;45.78
53550;BME280;67273;52.914;-0.982;2023-03-22T02:05:51;99250.16;;;19.22;45.93
53550;BME280;67273;52.914;-0.982;2023-03-22T02:08:22;99246.63;;;19.21;45.91
53550;BME280;67273;52.914;-0.982;2023-03-22T02:11:01;99256.69;;;19.21;45.80
53550;BME280;67273;52.914;-0.982;2023-03-22T02:13:45;99238.72;;;19.19;45.86
53550;BME280;67273;52.914;-0.982;2023-03-22T02:16:46;99236.00;;;19.19;46.16
53550;BME280;67273;52.914;-0.982;2023-03-22T02:19:33;99234.34;;;19.18;45.87
53550;BME280;67273;52.914;-0.982;2023-03-22T02:25:41;99229.22;;;19.17;45.80
53550;BME280;67273;52.914;-0.982;2023-03-22T02:28:17;99221.84;;;19.17;45.89
53550;BME280;67273;52.914;-0.982;2023-03-22T02:31:04;99223.75;;;19.17;45.86
53550;BME280;67273;52.914;-0.982;2023-03-22T02:36:45;99215.88;;;19.15;45.81
53550;BME280;67273;52.914;-0.982;2023-03-22T02:39:28;99213.97;;;19.16;45.92
53550;BME280;67273;52.914;-0.982;2023-03-22T02:42:10;99214.22;;;19.14;45.90
53550;BME280;67273;52.914;-0.982;2023-03-22T02:44:43;99211.50;;;19.14;45.79
53550;BME280;67273;52.914;-0.982;2023-03-22T02:47:19;99199.00;;;19.13;45.82
53550;BME280;67273;52.914;-0.982;2023-03-22T02:49:53;99199.81;;;19.14;45.89
53550;BME280;67273;52.914;-0.982;2023-03-22T02:52:26;99186.47;;;19.12;45.90
53550;BME280;67273;52.914;-0.982;2023-03-22T02:55:05;99175.59;;;19.12;45.70
53550;BME280;67273;52.914;-0.982;2023-03-22T02:57:39;99169.34;;;19.12;46.07
53550;BME280;67273;52.914;-0.982;2023-03-22T03:00:10;99174.78;;;19.12;45.80
53550;BME280;67273;52.914;-0.982;2023-03-22T03:02:42;99173.94;;;19.11;45.82
53550;BME280;67273;52.914;-0.982;2023-03-22T03:05:12;99173.94;;;19.11;45.82
53550;BME280;67273;52.914;-0.982;2023-03-22T03:07:40;99166.88;;;19.10;45.78
53550;BME280;67273;52.914;-0.982;2023-03-22T03:10:11;99173.13;;;19.11;45.80
53550;BME280;67273;52.914;-0.982;2023-03-22T03:12:39;99166.09;;;19.10;45.78
53550;BME280;67273;52.914;-0.982;2023-03-22T03:15:11;99162.53;;;19.09;45.95
53550;BME280;67273;52.914;-0.982;2023-03-22T03:17:47;99162.53;;;19.09;45.81
53550;BME280;67273;52.914;-0.982;2023-03-22T03:20:26;99159.00;;;19.09;45.84
53550;BME280;67273;52.914;-0.982;2023-03-22T03:23:08;99163.63;;;19.08;45.91
53550;BME280;67273;52.914;-0.982;2023-03-22T03:25:44;99171.81;;;19.08;45.75
53550;BME280;67273;52.914;-0.982;2023-03-22T03:28:16;99156.53;;;19.07;45.96
53550;BME280;67273;52.914;-0.982;2023-03-22T03:30:52;99154.63;;;19.08;45.75
53550;BME280;67273;52.914;-0.982;2023-03-22T03:33:21;99156.53;;;19.07;45.74
53550;BME280;67273;52.914;-0.982;2023-03-22T03:35:53;99142.13;;;19.07;45.68
53550;BME280;67273;52.914;-0.982;2023-03-22T03:38:24;99147.56;;;19.07;45.83
53550;BME280;67273;52.914;-0.982;2023-03-22T03:40:56;99144.03;;;19.06;45.97
53550;BME280;67273;52.914;-0.982;2023-03-22T03:43:23;99144.03;;;19.06;45.93
53550;BME280;67273;52.914;-0.982;2023-03-22T03:45:53;99137.75;;;19.06;45.92
53550;BME280;67273;52.914;-0.982;2023-03-22T03:48:22;99117.09;;;19.05;46.02
53550;BME280;67273;52.914;-0.982;2023-03-22T03:50:51;99117.91;;;19.05;45.86
53550;BME280;67273;52.914;-0.982;2023-03-22T03:53:26;99113.53;;;19.04;45.89
53550;BME280;67273;52.914;-0.982;2023-03-22T03:55:53;99112.75;;;19.04;45.81
53550;BME280;67273;52.914;-0.982;2023-03-22T03:58:19;99110.00;;;19.04;45.92
53550;BME280;67273;52.914;-0.982;2023-03-22T04:00:46;99106.50;;;19.03;45.94
53550;BME280;67273;52.914;-0.982;2023-03-22T04:03:38;99077.63;;;19.02;45.90
53550;BME280;67273;52.914;-0.982;2023-03-22T04:06:10;99055.84;;;19.02;45.82
53550;BME280;67273;52.914;-0.982;2023-03-22T04:08:39;99069.47;;;19.02;45.83
53550;BME280;67273;52.914;-0.982;2023-03-22T04:11:10;99061.31;;;19.02;45.96
53550;BME280;67273;52.914;-0.982;2023-03-22T04:13:38;99066.75;;;19.02;45.85
53550;BME280;67273;52.914;-0.982;2023-03-22T04:16:09;99065.13;;;19.01;45.95
53550;BME280;67273;52.914;-0.982;2023-03-22T04:18:38;99064.03;;;19.02;45.93
53550;BME280;67273;52.914;-0.982;2023-03-22T04:21:10;99074.91;;;19.02;45.84
53550;BME280;67273;52.914;-0.982;2023-03-22T04:23:47;99086.06;;;19.00;45.87
53550;BME280;67273;52.914;-0.982;2023-03-22T04:26:20;99086.91;;;19.01;45.87
53550;BME280;67273;52.914;-0.982;2023-03-22T04:29:07;99079.00;;;18.99;45.86
53550;BME280;67273;52.914;-0.982;2023-03-22T04:31:39;99077.09;;;19.00;45.73
53550;BME280;67273;52.914;-0.982;2023-03-22T04:34:22;99071.94;;;18.98;45.79
53550;BME280;67273;52.914;-0.982;2023-03-22T04:36:52;99073.56;;;18.99;45.82
53550;BME280;67273;52.914;-0.982;2023-03-22T04:39:31;99082.00;;;18.98;45.84
53550;BME280;67273;52.914;-0.982;2023-03-22T04:42:17;99096.44;;;18.98;45.78
53550;BME280;67273;52.914;-0.982;2023-03-22T04:44:44;99092.91;;;18.98;45.78
53550;BME280;67273;52.914;-0.982;2023-03-22T04:47:10;99080.09;;;18.98;45.91
53550;BME280;67273;52.914;-0.982;2023-03-22T04:49:36;99086.66;;;18.97;45.95
53550;BME280;67273;52.914;-0.982;2023-03-22T04:52:02;99090.44;;;18.96;45.80
53550;BME280;67273;52.914;-0.982;2023-03-22T04:54:36;99091.25;;;18.97;45.80
53550;BME280;67273;52.914;-0.982;2023-03-22T04:57:02;99085.00;;;18.96;45.92
53550;BME280;67273;52.914;-0.982;2023-03-22T04:59:35;99097.81;;;18.96;45.90
53550;BME280;67273;52.914;-0.982;2023-03-22T05:02:01;99096.69;;;18.97;45.91
53550;BME280;67273;52.914;-0.982;2023-03-22T05:04:34;99097.81;;;18.96;45.93
53550;BME280;67273;52.914;-0.982;2023-03-22T05:07:09;99116.88;;;18.96;45.86
53550;BME280;67273;52.914;-0.982;2023-03-22T05:09:43;99107.06;;;18.95;45.96
53550;BME280;67273;52.914;-0.982;2023-03-22T05:12:08;99114.41;;;18.94;45.88
53550;BME280;67273;52.914;-0.982;2023-03-22T05:15:02;99120.94;;;18.93;45.92
53550;BME280;67273;52.914;-0.982;2023-03-22T05:17:33;99117.41;;;18.93;45.93
53550;BME280;67273;52.914;-0.982;2023-03-22T05:20:00;99114.69;;;18.93;45.87
53550;BME280;67273;52.914;-0.982;2023-03-22T05:22:34;99115.78;;;18.92;45.90
53550;BME280;67273;52.914;-0.982;2023-03-22T05:25:04;99100.28;;;18.92;45.96
53550;BME280;67273;52.914;-0.982;2023-03-22T05:27:30;99112.25;;;18.91;45.94
53550;BME280;67273;52.914;-0.982;2023-03-22T05:30:08;99095.13;;;18.91;45.89
53550;BME280;67273;52.914;-0.982;2023-03-22T05:32:44;99111.44;;;18.91;45.89
53550;BME280;67273;52.914;-0.982;2023-03-22T05:35:12;99114.16;;;18.91;45.92
53550;BME280;67273;52.914;-0.982;2023-03-22T05:37:42;99130.75;;;18.89;45.83
53550;BME280;67273;52.914;-0.982;2023-03-22T05:40:11;99116.34;;;18.89;45.97
53550;BME280;67273;52.914;-0.982;2023-03-22T05:42:40;99116.34;;;18.89;46.02
53550;BME280;67273;52.914;-0.982;2023-03-22T05:45:16;99134.56;;;18.88;46.12
53550;BME280;67273;52.914;-0.982;2023-03-22T05:47:47;99154.44;;;18.89;46.02
53550;BME280;67273;52.914;-0.982;2023-03-22T05:50:19;99148.16;;;18.88;45.95
53550;BME280;67273;52.914;-0.982;2023-03-22T05:52:47;99136.47;;;18.88;45.95
53550;BME280;67273;52.914;-0.982;2023-03-22T05:55:26;99141.91;;;18.88;46.01
53550;BME280;67273;52.914;-0.982;2023-03-22T05:57:56;99143.03;;;18.87;45.93
53550;BME280;67273;52.914;-0.982;2023-03-22T06:00:26;99142.19;;;18.86;45.97
53550;BME280;67273;52.914;-0.982;2023-03-22T06:03:11;99134.03;;;18.86;45.98
53550;BME280;67273;52.914;-0.982;2023-03-22T06:05:42;99149.56;;;18.86;46.08
53550;BME280;67273;52.914;-0.982;2023-03-22T06:08:08;99163.16;;;18.86;46.07
53550;BME280;67273;52.914;-0.982;2023-03-22T06:10:34;99154.19;;;18.85;46.02
53550;BME280;67273;52.914;-0.982;2023-03-22T06:13:00;99153.34;;;18.85;46.06
53550;BME280;67273;52.914;-0.982;2023-03-22T06:15:31;99168.06;;;18.84;46.10
53550;BME280;67273;52.914;-0.982;2023-03-22T06:18:03;99162.63;;;18.84;46.12
53550;BME280;67273;52.914;-0.982;2023-03-22T06:20:33;99158.25;;;18.83;46.11
53550;BME280;67273;52.914;-0.982;2023-03-22T06:23:05;99170.78;;;18.84;46.10
53550;BME280;67273;52.914;-0.982;2023-03-22T06:25:33;99173.50;;;18.84;46.03
53550;BME280;67273;52.914;-0.982;2023-03-22T06:27:59;99177.31;;;18.83;46.05
53550;BME280;67273;52.914;-0.982;2023-03-22T06:30:25;99192.81;;;18.82;46.16
53550;BME280;67273;52.914;-0.982;2023-03-22T06:33:09;99201.78;;;18.83;46.07
53550;BME280;67273;52.914;-0.982;2023-03-22T06:35:39;99199.06;;;18.83;46.04
53550;BME280;67273;52.914;-0.982;2023-03-22T06:38:07;99197.47;;;18.82;46.08
53550;BME280;67273;52.914;-0.982;2023-03-22T06:40:34;99196.59;;;18.81;46.02
53550;BME280;67273;52.914;-0.982;2023-03-22T06:43:01;99200.19;;;18.87;45.81
53550;BME280;67273;52.914;-0.982;2023-03-22T06:45:28;99217.31;;;18.92;46.00
53550;BME280;67273;52.914;-0.982;2023-03-22T06:47:58;99227.06;;;18.98;45.73
53550;BME280;67273;52.914;-0.982;2023-03-22T06:50:27;99229.50;;;19.05;45.46
53550;BME280;67273;52.914;-0.982;2023-03-22T06:53:01;99240.91;;;19.12;45.25
53550;BME280;67273;52.914;-0.982;2023-03-22T06:55:27;99243.09;;;19.21;45.21
53550;BME280;67273;52.914;-0.982;2023-03-22T06:57:58;99249.31;;;19.31;45.19
53550;BME280;67273;52.914;-0.982;2023-03-22T07:00:24;99252.28;;;19.40;44.97
53550;BME280;67273;52.914;-0.982;2023-03-22T07:02:50;99260.66;;;19.49;44.75
53550;BME280;67273;52.914;-0.982;2023-03-22T07:05:24;99260.38;;;19.55;44.69
53550;BME280;67273;52.914;-0.982;2023-03-22T07:07:51;99267.44;;;19.62;44.60
53550;BME280;67273;52.914;-0.982;2023-03-22T07:10:17;99273.41;;;19.64;44.65
53550;BME280;67273;52.914;-0.982;2023-03-22T07:12:43;99277.47;;;19.66;44.61
53550;BME280;67273;52.914;-0.982;2023-03-22T07:15:12;99275.28;;;19.68;44.52
53550;BME280;67273;52.914;-0.982;2023-03-22T07:17:47;99284.56;;;19.67;44.58
53550;BME280;67273;52.914;-0.982;2023-03-22T07:20:14;99279.94;;;19.68;44.53
53550;BME280;67273;52.914;-0.982;2023-03-22T07:22:40;99289.75;;;19.69;44.47
53550;BME280;67273;52.914;-0.982;2023-03-22T07:25:08;99301.97;;;19.71;44.70
53550;BME280;67273;52.914;-0.982;2023-03-22T07:27:34;99303.91;;;19.71;44.61
53550;BME280;67273;52.914;-0.982;2023-03-22T07:30:01;99303.91;;;19.71;44.47
53550;BME280;67273;52.914;-0.982;2023-03-22T07:32:30;99320.78;;;19.73;44.52
53550;BME280;67273;52.914;-0.982;2023-03-22T07:35:04;99326.22;;;19.73;44.56
53550;BME280;67273;52.914;-0.982;2023-03-22T07:37:30;99332.53;;;19.73;44.52
53550;BME280;67273;52.914;-0.982;2023-03-22T07:39:56;99332.53;;;19.73;44.50
53550;BME280;67273;52.914;-0.982;2023-03-22T07:42:28;99343.16;;;19.75;44.44
53550;BME280;67273;52.914;-0.982;2023-03-22T07:45:15;99334.41;;;19.73;44.30
53550;BME280;67273;52.914;-0.982;2023-03-22T07:47:41;99334.41;;;19.73;44.32
53550;BME280;67273;52.914;-0.982;2023-03-22T07:50:27;99355.16;;;19.74;44.31
53550;BME280;67273;52.914;-0.982;2023-03-22T07:52:55;99346.97;;;19.74;44.40
53550;BME280;67273;52.914;-0.982;2023-03-22T07:55:21;99351.88;;;19.72;44.33
53550;BME280;67273;52.914;-0.982;2023-03-22T07:57:48;99353.47;;;19.73;44.30
53550;BME280;67273;52.914;-0.982;2023-03-22T08:00:16;99346.41;;;19.72;44.33
53550;BME280;67273;52.914;-0.982;2023-03-22T08:02:49;99351.88;;;19.72;44.22
53550;BME280;67273;52.914;-0.982;2023-03-22T08:05:35;99356.47;;;19.71;44.29
53550;BME280;67273;52.914;-0.982;2023-03-22T08:08:04;99357.31;;;19.72;44.43
53550;BME280;67273;52.914;-0.982;2023-03-22T08:10:30;99355.66;;;19.71;44.31
53550;BME280;67273;52.914;-0.982;2023-03-22T08:12:59;99354.88;;;19.70;44.26
53550;BME280;67273;52.914;-0.982;2023-03-22T08:15:26;99358.66;;;19.69;44.54
53550;BME280;67273;52.914;-0.982;2023-03-22T08:17:52;99359.75;;;19.73;44.55
53550;BME280;67273;52.914;-0.982;2023-03-22T08:20:28;99363.84;;;19.86;45.68
53550;BME280;67273;52.914;-0.982;2023-03-22T08:22:58;99363.50;;;19.93;45.80
53550;BME280;67273;52.914;-0.982;2023-03-22T08:25:27;99366.22;;;19.98;45.97
53550;BME280;67273;52.914;-0.982;2023-03-22T08:28:03;99358.81;;;20.04;46.10
53550;BME280;67273;52.914;-0.982;2023-03-22T08:30:28;99368.38;;;20.06;46.21
53550;BME280;67273;52.914;-0.982;2023-03-22T08:32:55;99361.53;;;20.09;46.18
53550;BME280;67273;52.914;-0.982;2023-03-22T08:35:21;99363.97;;;20.10;46.39
53550;BME280;67273;52.914;-0.982;2023-03-22T08:37:52;99369.16;;;20.12;45.99
53550;BME280;67273;52.914;-0.982;2023-03-22T08:40:20;99380.88;;;20.12;46.35
53550;BME280;67273;52.914;-0.982;2023-03-22T08:42:52;99374.06;;;20.15;46.29
53550;BME280;67273;52.914;-0.982;2023-03-22T08:45:20;99376.22;;;20.18;46.38
53550;BME280;67273;52.914;-0.982;2023-03-22T08:47:52;99377.28;;;20.22;46.11
53550;BME280;67273;52.914;-0.982;2023-03-22T08:50:22;99362.88;;;20.17;46.10
53550;BME280;67273;52.914;-0.982;2023-03-22T08:52:58;99382.25;;;20.15;45.91
53550;BME280;67273;52.914;-0.982;2023-03-22T08:55:29;99372.69;;;20.12;45.84
53550;BME280;67273;52.914;-0.982;2023-03-22T08:58:09;99374.59;;;20.12;45.67
53550;BME280;67273;52.914;-0.982;2023-03-22T09:00:57;99386.03;;;20.19;45.66
53550;BME280;67273;52.914;-0.982;2023-03-22T09:03:33;99383.31;;;20.19;46.00
53550;BME280;67273;52.914;-0.982;2023-03-22T09:05:59;99381.09;;;20.21;46.00
53550;BME280;67273;52.914;-0.982;2023-03-22T09:08:28;99383.56;;;20.23;45.92
53550;BME280;67273;52.914;-0.982;2023-03-22T09:11:03;99380.53;;;20.24;46.03
53550;BME280;67273;52.914;-0.982;2023-03-22T09:13:31;99378.34;;;20.26;45.93
53550;BME280;67273;52.914;-0.982;2023-03-22T09:16:01;99380.00;;;20.27;46.08
53550;BME280;67273;52.914;-0.982;2023-03-22T09:18:32;99382.13;;;20.30;45.95
53550;BME280;67273;52.914;-0.982;2023-03-22T09:21:01;99385.44;;;20.27;45.92
53550;BME280;67273;52.914;-0.982;2023-03-22T09:23:38;99387.09;;;20.23;46.03
53550;BME280;67273;52.914;-0.982;2023-03-22T09:26:07;99396.38;;;20.22;45.92
53550;BME280;67273;52.914;-0.982;2023-03-22T09:28:34;99387.75;;;19.94;47.07
53550;BME280;67273;52.914;-0.982;2023-03-22T09:31:06;99388.91;;;19.88;47.06
53550;BME280;67273;52.914;-0.982;2023-03-22T09:33:33;99386.47;;;19.77;47.21
53550;BME280;67273;52.914;-0.982;2023-03-22T09:36:00;99392.19;;;19.80;47.27
53550;BME280;67273;52.914;-0.982;2023-03-22T09:38:27;99383.94;;;20.01;47.35
53550;BME280;67273;52.914;-0.982;2023-03-22T09:41:00;99385.25;;;20.13;46.85
53550;BME280;67273;52.914;-0.982;2023-03-22T09:43:33;99374.59;;;20.17;46.92
53550;BME280;67273;52.914;-0.982;2023-03-22T09:46:01;99382.22;;;20.20;46.96
53550;BME280;67273;52.914;-0.982;2023-03-22T09:48:31;99389.00;;;20.23;46.50
53550;BME280;67273;52.914;-0.982;2023-03-22T09:50:59;99390.06;;;20.27;46.26
53550;BME280;67273;52.914;-0.982;2023-03-22T09:53:27;99379.50;;;20.15;45.91
53550;BME280;67273;52.914;-0.982;2023-03-22T09:56:00;99387.25;;;19.82;46.64
53550;BME280;67273;52.914;-0.982;2023-03-22T09:58:32;99384.56;;;19.72;46.80
53550;BME280;67273;52.914;-0.982;2023-03-22T10:01:05;99390.31;;;19.75;47.33
53550;BME280;67273;52.914;-0.982;2023-03-22T10:03:55;99377.97;;;19.99;46.53
53550;BME280;67273;52.914;-0.982;2023-03-22T10:06:25;99381.16;;;20.11;46.38
53550;BME280;67273;52.914;-0.982;2023-03-22T10:08:59;99385.78;;;20.16;46.07
53550;BME280;67273;52.914;-0.982;2023-03-22T10:11:37;99384.94;;;20.20;46.22
53550;BME280;67273;52.914;-0.982;2023-03-22T10:14:16;99382.47;;;20.24;46.16
53550;BME280;67273;52.914;-0.982;2023-03-22T10:16:48;99378.34;;;20.26;45.84
53550;BME280;67273;52.914;-0.982;2023-03-22T10:19:20;99380.53;;;20.29;45.81
53550;BME280;67273;52.914;-0.982;2023-03-22T10:21:50;99387.31;;;20.32;45.63
53550;BME280;67273;52.914;-0.982;2023-03-22T10:24:24;99382.69;;;20.32;46.07
53550;BME280;67273;52.914;-0.982;2023-03-22T10:26:55;99373.44;;;20.28;45.60
53550;BME280;67273;52.914;-0.982;2023-03-22T10:29:25;99374.28;;;20.24;44.97
53550;BME280;67273;52.914;-0.982;2023-03-22T10:31:53;99373.69;;;20.27;45.31
53550;BME280;67273;52.914;-0.982;2023-03-22T10:34:25;99383.25;;;20.29;45.15
53550;BME280;67273;52.914;-0.982;2023-03-22T10:36:57;99378.31;;;20.31;45.44
53550;BME280;67273;52.914;-0.982;2023-03-22T10:39:30;99380.50;;;20.35;45.21
53550;BME280;67273;52.914;-0.982;2023-03-22T10:41:59;99385.41;;;20.38;45.21
53550;BME280;67273;52.914;-0.982;2023-03-22T10:44:29;99384.28;;;20.39;45.08
53550;BME280;67273;52.914;-0.982;2023-03-22T10:46:55;99382.38;;;20.39;44.97
53550;BME280;67273;52.914;-0.982;2023-03-22T10:49:28;99383.19;;;20.40;45.18
53550;BME280;67273;52.914;-0.982;2023-03-22T10:52:01;99378.28;;;20.42;45.22
53550;BME280;67273;52.914;-0.982;2023-03-22T10:54:28;99393.53;;;20.43;45.21
53550;BME280;67273;52.914;-0.982;2023-03-22T10:56:56;99396.25;;;20.43;45.09
53550;BME280;67273;52.914;-0.982;2023-03-22T10:59:46;99400.63;;;20.44;45.15
53550;BME280;67273;52.914;-0.982;2023-03-22T11:02:20;99402.28;;;20.45;45.45
53550;BME280;67273;52.914;-0.982;2023-03-22T11:04:50;99411.78;;;20.47;45.26
53550;BME280;67273;52.914;-0.982;2023-03-22T11:07:29;99403.84;;;20.51;45.79
53550;BME280;67273;52.914;-0.982;2023-03-22T11:10:12;99398.38;;;20.56;45.50
53550;BME280;67273;52.914;-0.982;2023-03-22T11:12:47;99397.50;;;20.66;45.36
53550;BME280;67273;52.914;-0.982;2023-03-22T11:15:19;99395.25;;;20.78;45.12
53550;BME280;67273;52.914;-0.982;2023-03-22T11:17:47;99389.94;;;20.92;44.84
53550;BME280;67273;52.914;-0.982;2023-03-22T11:20:15;99396.97;;;21.03;44.56
53550;BME280;67273;52.914;-0.982;2023-03-22T11:22:44;99395.78;;;21.15;44.35
53550;BME280;67273;52.914;-0.982;2023-03-22T11:25:14;99400.91;;;20.87;44.97
53550;BME280;67273;52.914;-0.982;2023-03-22T11:27:50;99397.81;;;20.59;45.73
53550;BME280;67273;52.914;-0.982;2023-03-22T11:30:22;99401.59;;;20.68;45.73
53550;BME280;67273;52.914;-0.982;2023-03-22T11:32:49;99397.19;;;20.73;45.97
53550;BME280;67273;52.914;-0.982;2023-03-22T11:35:25;99389.78;;;21.13;45.17
53550;BME280;67273;52.914;-0.982;2023-03-22T11:37:53;99398.38;;;21.30;44.91
53550;BME280;67273;52.914;-0.982;2023-03-22T11:40:22;99405.38;;;21.41;44.62
53550;BME280;67273;52.914;-0.982;2023-03-22T11:42:52;99409.19;;;21.45;44.32
53550;BME280;67273;52.914;-0.982;2023-03-22T11:45:24;99392.72;;;21.51;44.06
53550;BME280;67273;52.914;-0.982;2023-03-22T11:47:51;99393.84;;;21.50;44.28
53550;BME280;67273;52.914;-0.982;2023-03-22T11:50:27;99403.09;;;21.54;44.03
53550;BME280;67273;52.914;-0.982;2023-03-22T11:52:54;99410.41;;;21.58;43.90
53550;BME280;67273;52.914;-0.982;2023-03-22T11:55:22;99397.81;;;21.62;43.88
53550;BME280;67273;52.914;-0.982;2023-03-22T11:57:52;99402.44;;;21.62;43.88
53550;BME280;67273;52.914;-0.982;2023-03-22T12:00:24;99400.78;;;21.66;43.91
53550;BME280;67273;52.914;-0.982;2023-03-22T12:02:56;99390.59;;;21.13;44.83
53550;BME280;67273;52.914;-0.982;2023-03-22T12:05:27;99390.63;;;20.79;45.48
53550;BME280;67273;52.914;-0.982;2023-03-22T12:07:58;99398.88;;;20.68;46.83
53550;BME280;67273;52.914;-0.982;2023-03-22T12:10:29;99392.88;;;20.66;46.85
53550;BME280;67273;52.914;-0.982;2023-03-22T12:12:58;99379.00;;;20.63;47.10
53550;BME280;67273;52.914;-0.982;2023-03-22T12:15:26;99387.19;;;20.63;46.84
53550;BME280;67273;52.914;-0.982;2023-03-22T12:17:56;99380.81;;;20.73;48.18
53550;BME280;67273;52.914;-0.982;2023-03-22T12:20:35;99370.16;;;21.11;47.48
53550;BME280;67273;52.914;-0.982;2023-03-22T12:23:11;99368.09;;;21.26;46.90
53550;BME280;67273;52.914;-0.982;2023-03-22T12:25:39;99352.47;;;21.32;46.65
53550;BME280;67273;52.914;-0.982;2023-03-22T12:28:14;99353.38;;;20.93;47.25
53550;BME280;67273;52.914;-0.982;2023-03-22T12:30:48;99363.56;;;20.82;48.08
53550;BME280;67273;52.914;-0.982;2023-03-22T12:33:20;99359.72;;;20.83;48.41
53550;BME280;67273;52.914;-0.982;2023-03-22T12:35:51;99356.19;;;20.83;48.58
53550;BME280;67273;52.914;-0.982;2023-03-22T12:38:29;99353.72;;;20.81;48.15
53550;BME280;67273;52.914;-0.982;2023-03-22T12:41:02;99353.91;;;20.95;48.17
53550;BME280;67273;52.914;-0.982;2023-03-22T12:43:38;99358.34;;;21.15;47.33
53550;BME280;67273;52.914;-0.982;2023-03-22T12:46:15;99347.00;;;21.32;46.31
53550;BME280;67273;52.914;-0.982;2023-03-22T12:48:47;99348.22;;;21.45;45.94
53550;BME280;67273;52.914;-0.982;2023-03-22T12:51:16;99336.38;;;21.55;45.78
53550;BME280;67273;52.914;-0.982;2023-03-22T12:53:44;99330.56;;;21.61;45.57
53550;BME280;67273;52.914;-0.982;2023-03-22T12:56:14;99337.06;;;21.65;45.25
53550;BME280;67273;52.914;-0.982;2023-03-22T12:58:47;99337.69;;;21.33;45.73
53550;BME280;67273;52.914;-0.982;2023-03-22T13:01:22;99329.47;;;21.33;46.33
53550;BME280;67273;52.914;-0.982;2023-03-22T13:03:52;99313.47;;;21.51;46.17
53550;BME280;67273;52.914;-0.982;2023-03-22T13:06:56;99321.84;;;21.59;45.88
53550;BME280;67273;52.914;-0.982;2023-03-22T13:09:44;99319.88;;;21.65;45.73
53550;BME280;67273;52.914;-0.982;2023-03-22T13:12:30;99310.56;;;21.66;45.56
53550;BME280;67273;52.914;-0.982;2023-03-22T13:14:59;99324.47;;;21.70;45.29
53550;BME280;67273;52.914;-0.982;2023-03-22T13:17:46;99319.53;;;21.72;45.08
53550;BME280;67273;52.914;-0.982;2023-03-22T13:20:24;99316.50;;;21.73;45.04
53550;BME280;67273;52.914;-0.982;2023-03-22T13:23:26;99328.75;;;21.76;45.09